Eendracht — PDVN — position and weather

sailwx.info

Track history (hours):
 
Tides and Currents Weather Stations Pressure Air Temp Water Temp Dewpoint Dewpoint Depression Visibility Wind Speed Wind Dir Waves Ship Positions

Eendracht (Netherlands)

Last reported at 2018-Jan-23 04:06 UTC. Time now 2018-Jan-24 01:32 UTC.
Position N 28°11' W 013°49'.

Length 59 m; beam 12 m; draft 5 m.

Type: Sailing vessel. MMSI: 244543000.

Date/timePositionNaut miles runAvg speedWind from/ knotsBaromVisibWave heightAir tempDewpointWater temp
2018-Jan-23 04:06N 28°11' W 013°49'1 4.5
2018-Jan-23 03:59N 28°10' W 013°49'2 4.4
2018-Jan-23 03:28N 28°08' W 013°49'3 4.3
2018-Jan-23 02:43N 28°05' W 013°50'4 4.3
2018-Jan-23 01:43N 28°00' W 013°50'3 4.3
2018-Jan-23 01:07N 27°58' W 013°50'1 4.3
2018-Jan-23 00:56N 27°57' W 013°50'2 2.8
2018-Jan-23 00:22N 27°56' W 013°51'2 4.2
2018-Jan-22 23:54N 27°56' W 013°53'4 7.6
2018-Jan-22 23:26N 27°58' W 013°57'5 7.5
2018-Jan-22 22:42N 28°00' W 014°03'7 6.0
2018-Jan-22 21:35N 28°03' W 014°10'1 2.2
2018-Jan-22 20:57N 28°03' W 014°11'6 6.4
2018-Jan-22 19:56N 27°57' W 014°09'4 6.2
2018-Jan-22 19:21N 27°53' W 014°07'2 6.1
2018-Jan-22 18:58N 27°52' W 014°06'4 5.3
2018-Jan-22 18:15N 27°49' W 014°03'1 4.5
2018-Jan-22 17:59N 27°48' W 014°02'2 4.4
2018-Jan-22 17:30N 27°46' W 014°00'2 3.6
2018-Jan-22 17:00N 27°45' W 013°59'2 4.1
2018-Jan-22 16:30N 27°43' W 013°57'2 4.8
2018-Jan-22 16:00N 27°44' W 014°00'2 4.9
2018-Jan-22 15:30N 27°45' W 014°03'2 4.2
2018-Jan-22 15:00N 27°46' W 014°05'2 4.2
2018-Jan-22 14:30N 27°48' W 014°06'2 4.7
2018-Jan-22 14:00N 27°49' W 014°08'2 4.6
2018-Jan-22 13:30N 27°51' W 014°10'2 3.8
2018-Jan-22 13:00N 27°52' W 014°11'2 4.1
2018-Jan-22 12:30N 27°54' W 014°13'2 4.1
2018-Jan-22 12:00N 27°56' W 014°14'2 4.8
2018-Jan-22 11:30N 27°57' W 014°16'1 1.8
2018-Jan-22 11:00N 27°57' W 014°15'3 5.1
2018-Jan-22 10:30N 27°54' W 014°14'3 5.8
2018-Jan-22 10:00N 27°52' W 014°12'3 5.6
2018-Jan-22 09:30N 27°50' W 014°11'3 5.5
2018-Jan-22 09:00N 27°47' W 014°09'3 5.9
2018-Jan-22 08:30N 27°45' W 014°08'2 3.4
2018-Jan-22 08:00N 27°43' W 014°07'2 3.5
2018-Jan-22 07:30N 27°42' W 014°06'1 1.4
2018-Jan-22 07:00N 27°41' W 014°05'2 3.9
2018-Jan-22 06:30N 27°42' W 014°07'3 5.1
2018-Jan-22 06:00N 27°44' W 014°09'3 5.6
2018-Jan-22 05:30N 27°46' W 014°11'3 5.4
2018-Jan-22 05:00N 27°48' W 014°14'3 5.4
2018-Jan-22 04:30N 27°49' W 014°16'3 5.7
2018-Jan-22 04:00N 27°51' W 014°19'2 4.9
2018-Jan-22 03:30N 27°52' W 014°21'2 3.4
2018-Jan-22 03:00N 27°53' W 014°22'2 3.2
2018-Jan-22 02:30N 27°54' W 014°24'2 3.3
2018-Jan-22 02:00N 27°55' W 014°25'2 4.7
2018-Jan-22 01:30N 27°56' W 014°28'2 4.3
2018-Jan-22 01:00N 27°58' W 014°30'1 1.7
2018-Jan-22 00:30N 27°58' W 014°31'2 3.0
2018-Jan-22 00:00N 27°59' W 014°32'2 4.3
2018-Jan-21 23:30N 27°60' W 014°34'2 4.2
2018-Jan-21 23:00N 28°01' W 014°36'3 4.6
2018-Jan-21 22:27N 28°03' W 014°38'2 4.6
2018-Jan-21 22:00N 28°04' W 014°40'2 4.4
2018-Jan-21 21:30N 28°05' W 014°42'2 4.5
2018-Jan-21 21:00N 28°07' W 014°44'2 4.8
2018-Jan-21 20:30N 28°09' W 014°46'2 5.0
2018-Jan-21 20:00N 28°10' W 014°48'3 5.3
2018-Jan-21 19:30N 28°12' W 014°50'3 5.1
2018-Jan-21 19:00N 28°14' W 014°52'3 5.2
2018-Jan-21 18:29N 28°15' W 014°55'2 4.8
2018-Jan-21 18:00N 28°16' W 014°58'2 4.1
2018-Jan-21 17:30N 28°16' W 014°60'2 3.0
2018-Jan-21 17:00N 28°17' W 015°01'1 2.8
2018-Jan-21 16:30N 28°17' W 015°03'2 3.9
2018-Jan-21 16:00N 28°16' W 015°05'2 4.4
2018-Jan-21 15:30N 28°14' W 015°07'2 4.6
2018-Jan-21 15:00N 28°13' W 015°09'2 4.7
2018-Jan-21 14:29N 28°12' W 015°11'2 4.7
2018-Jan-21 14:00N 28°11' W 015°14'2 4.7
2018-Jan-21 13:30N 28°09' W 015°16'2 4.6
2018-Jan-21 13:00N 28°08' W 015°18'2 4.6
2018-Jan-21 12:30N 28°07' W 015°20'2 4.3
2018-Jan-21 12:00N 28°07' W 015°23'2 4.3
2018-Jan-21 11:30N 28°08' W 015°25'1 1.0
2018-Jan-21 10:51N 28°08' W 015°25'0 0.0
2018-Jan-21 10:20N 28°08' W 015°25'0 0.0
2018-Jan-21 09:53N 28°08' W 015°25'0 0.0
2018-Jan-21 09:29N 28°08' W 015°25'0 0.0
2018-Jan-21 08:53N 28°08' W 015°25'0 0.0
2018-Jan-21 08:23N 28°08' W 015°25'0 0.0
2018-Jan-21 07:53N 28°08' W 015°25'0 0.0
2018-Jan-21 07:20N 28°08' W 015°25'0 0.0
2018-Jan-21 06:53N 28°08' W 015°25'0 0.0
2018-Jan-21 06:20N 28°08' W 015°25'0 0.0
2018-Jan-21 05:53N 28°08' W 015°25'0 0.0
2018-Jan-21 05:20N 28°08' W 015°25'0 0.0
2018-Jan-21 04:56N 28°08' W 015°25'0 0.0
2018-Jan-21 04:11N 28°08' W 015°25'0 0.0
2018-Jan-21 03:56N 28°08' W 015°25'0 0.0
2018-Jan-21 03:26N 28°08' W 015°25'0 0.0
2018-Jan-21 02:56N 28°08' W 015°25'0 0.0
2018-Jan-21 02:26N 28°08' W 015°25'0 0.0
2018-Jan-21 01:56N 28°08' W 015°25'0 0.0
2018-Jan-21 01:26N 28°08' W 015°25'0 0.0
2018-Jan-21 00:56N 28°08' W 015°25'0 0.0
2018-Jan-21 00:26N 28°08' W 015°25'0 0.0
2018-Jan-20 23:59N 28°08' W 015°25'0 0.0
2018-Jan-20 23:29N 28°08' W 015°25'0 0.0
2018-Jan-20 22:56N 28°08' W 015°25'0 0.0
2018-Jan-20 22:29N 28°08' W 015°25'0 0.0
2018-Jan-20 21:56N 28°08' W 015°25'0 0.0
2018-Jan-20 21:29N 28°08' W 015°25'0 0.0
2018-Jan-20 20:59N 28°08' W 015°25'0 0.0
2018-Jan-20 20:29N 28°08' W 015°25'0 0.0
2018-Jan-20 19:59N 28°08' W 015°25'0 0.0
2018-Jan-20 19:29N 28°08' W 015°25'0 0.0
2018-Jan-20 18:59N 28°08' W 015°25'0 0.0
2018-Jan-20 18:29N 28°08' W 015°25'0 0.0
2018-Jan-20 17:56N 28°08' W 015°25'0 0.0
2018-Jan-20 17:17N 28°08' W 015°25'0 0.0
2018-Jan-20 16:56N 28°08' W 015°25'0 0.0
2018-Jan-20 16:29N 28°08' W 015°25'0 0.0
2018-Jan-20 15:59N 28°08' W 015°25'0 0.0
2018-Jan-20 15:29N 28°08' W 015°25'0 0.0
2018-Jan-20 14:59N 28°08' W 015°25'0 0.0
2018-Jan-20 14:29N 28°08' W 015°25'0 0.0
2018-Jan-20 13:59N 28°08' W 015°25'0 0.0
2018-Jan-20 13:29N 28°08' W 015°25'0 0.0
2018-Jan-20 12:35N 28°08' W 015°25'0 0.0
2018-Jan-20 12:29N 28°08' W 015°25'0 0.0
2018-Jan-20 11:50N 28°08' W 015°25'0 0.0
2018-Jan-20 11:20N 28°08' W 015°25'0 0.0
2018-Jan-20 10:47N 28°08' W 015°25'0 0.0
2018-Jan-20 10:20N 28°08' W 015°25'0 0.0
2018-Jan-20 09:50N 28°08' W 015°25'0 0.0
2018-Jan-20 09:20N 28°08' W 015°25'0 0.0
2018-Jan-20 09:00N 28°08' W 015°25'1 2.4
2018-Jan-20 08:30N 28°07' W 015°25'3 5.5
2018-Jan-20 07:59N 28°05' W 015°23'1 3.0
2018-Jan-20 07:30N 28°04' W 015°22'1 1.0
2018-Jan-20 07:00N 28°04' W 015°22'2 4.0
2018-Jan-20 06:30N 28°06' W 015°21'2 4.0
2018-Jan-20 06:00N 28°07' W 015°20'2 3.8
2018-Jan-20 05:30N 28°09' W 015°19'2 4.1
2018-Jan-20 05:00N 28°10' W 015°17'2 4.0
2018-Jan-20 04:30N 28°12' W 015°16'0 1.0
2018-Jan-20 04:00N 28°12' W 015°16'3 5.3
2018-Jan-20 03:30N 28°14' W 015°19'3 5.2
2018-Jan-20 03:00N 28°15' W 015°21'2 4.4
2018-Jan-20 02:30N 28°17' W 015°23'2 4.4
2018-Jan-20 02:00N 28°18' W 015°25'2 4.4
2018-Jan-20 01:30N 28°20' W 015°27'2 4.0
2018-Jan-20 01:00N 28°20' W 015°29'2 3.7
2018-Jan-20 00:31N 28°21' W 015°31'2 3.8
2018-Jan-20 00:00N 28°22' W 015°33'2 3.8
2018-Jan-19 23:30N 28°23' W 015°35'2 3.5
2018-Jan-19 23:00N 28°24' W 015°37'1 2.8
2018-Jan-19 22:30N 28°25' W 015°38'1 3.0
2018-Jan-19 22:00N 28°26' W 015°39'2 3.3
2018-Jan-19 21:30N 28°27' W 015°41'2 3.5
2018-Jan-19 21:01N 28°28' W 015°42'2 3.8
2018-Jan-19 20:30N 28°29' W 015°44'2 4.5
2018-Jan-19 20:00N 28°30' W 015°47'3 5.4
2018-Jan-19 19:30N 28°31' W 015°49'3 5.4
2018-Jan-19 19:00N 28°32' W 015°52'3 5.6
2018-Jan-19 18:31N 28°34' W 015°55'3 5.6
2018-Jan-19 18:00N 28°35' W 015°57'3 5.6
2018-Jan-19 17:30N 28°37' W 016°00'  
Track history (hours):
 
Tides and Currents Weather Stations Pressure Air Temp Water Temp Dewpoint Dewpoint Depression Visibility Wind Speed Wind Dir Waves Ship Positions

Eendracht (Netherlands)

Last reported at 2018-Jan-23 04:06 UTC. Time now 2018-Jan-24 01:32 UTC.
Position N 28°11' W 013°49'.

Length 59 m; beam 12 m; draft 5 m.

Type: Sailing vessel. MMSI: 244543000.

Date/timePositionNaut miles runAvg speedWind from/ knotsBaromVisibWave heightAir tempDewpointWater temp
2018-Jan-23 04:06N 28°11' W 013°49'1 4.5
2018-Jan-23 03:59N 28°10' W 013°49'2 4.4
2018-Jan-23 03:28N 28°08' W 013°49'3 4.3
2018-Jan-23 02:43N 28°05' W 013°50'4 4.3
2018-Jan-23 01:43N 28°00' W 013°50'3 4.3
2018-Jan-23 01:07N 27°58' W 013°50'1 4.3
2018-Jan-23 00:56N 27°57' W 013°50'2 2.8
2018-Jan-23 00:22N 27°56' W 013°51'2 4.2
2018-Jan-22 23:54N 27°56' W 013°53'4 7.6
2018-Jan-22 23:26N 27°58' W 013°57'5 7.5
2018-Jan-22 22:42N 28°00' W 014°03'7 6.0
2018-Jan-22 21:35N 28°03' W 014°10'1 2.2
2018-Jan-22 20:57N 28°03' W 014°11'6 6.4
2018-Jan-22 19:56N 27°57' W 014°09'4 6.2
2018-Jan-22 19:21N 27°53' W 014°07'2 6.1
2018-Jan-22 18:58N 27°52' W 014°06'4 5.3
2018-Jan-22 18:15N 27°49' W 014°03'1 4.5
2018-Jan-22 17:59N 27°48' W 014°02'2 4.4
2018-Jan-22 17:30N 27°46' W 014°00'2 3.6
2018-Jan-22 17:00N 27°45' W 013°59'2 4.1
2018-Jan-22 16:30N 27°43' W 013°57'2 4.8
2018-Jan-22 16:00N 27°44' W 014°00'2 4.9
2018-Jan-22 15:30N 27°45' W 014°03'2 4.2
2018-Jan-22 15:00N 27°46' W 014°05'2 4.2
2018-Jan-22 14:30N 27°48' W 014°06'2 4.7
2018-Jan-22 14:00N 27°49' W 014°08'2 4.6
2018-Jan-22 13:30N 27°51' W 014°10'2 3.8
2018-Jan-22 13:00N 27°52' W 014°11'2 4.1
2018-Jan-22 12:30N 27°54' W 014°13'2 4.1
2018-Jan-22 12:00N 27°56' W 014°14'2 4.8
2018-Jan-22 11:30N 27°57' W 014°16'1 1.8
2018-Jan-22 11:00N 27°57' W 014°15'3 5.1
2018-Jan-22 10:30N 27°54' W 014°14'3 5.8
2018-Jan-22 10:00N 27°52' W 014°12'3 5.6
2018-Jan-22 09:30N 27°50' W 014°11'3 5.5
2018-Jan-22 09:00N 27°47' W 014°09'3 5.9
2018-Jan-22 08:30N 27°45' W 014°08'2 3.4
2018-Jan-22 08:00N 27°43' W 014°07'2 3.5
2018-Jan-22 07:30N 27°42' W 014°06'1 1.4
2018-Jan-22 07:00N 27°41' W 014°05'2 3.9
2018-Jan-22 06:30N 27°42' W 014°07'3 5.1
2018-Jan-22 06:00N 27°44' W 014°09'3 5.6
2018-Jan-22 05:30N 27°46' W 014°11'3 5.4
2018-Jan-22 05:00N 27°48' W 014°14'3 5.4
2018-Jan-22 04:30N 27°49' W 014°16'3 5.7
2018-Jan-22 04:00N 27°51' W 014°19'2 4.9
2018-Jan-22 03:30N 27°52' W 014°21'2 3.4
2018-Jan-22 03:00N 27°53' W 014°22'2 3.2
2018-Jan-22 02:30N 27°54' W 014°24'2 3.3
2018-Jan-22 02:00N 27°55' W 014°25'2 4.7
2018-Jan-22 01:30N 27°56' W 014°28'2 4.3
2018-Jan-22 01:00N 27°58' W 014°30'1 1.7
2018-Jan-22 00:30N 27°58' W 014°31'2 3.0
2018-Jan-22 00:00N 27°59' W 014°32'2 4.3
2018-Jan-21 23:30N 27°60' W 014°34'2 4.2
2018-Jan-21 23:00N 28°01' W 014°36'3 4.6
2018-Jan-21 22:27N 28°03' W 014°38'2 4.6
2018-Jan-21 22:00N 28°04' W 014°40'2 4.4
2018-Jan-21 21:30N 28°05' W 014°42'2 4.5
2018-Jan-21 21:00N 28°07' W 014°44'2 4.8
2018-Jan-21 20:30N 28°09' W 014°46'2 5.0
2018-Jan-21 20:00N 28°10' W 014°48'3 5.3
2018-Jan-21 19:30N 28°12' W 014°50'3 5.1
2018-Jan-21 19:00N 28°14' W 014°52'3 5.2
2018-Jan-21 18:29N 28°15' W 014°55'2 4.8
2018-Jan-21 18:00N 28°16' W 014°58'2 4.1
2018-Jan-21 17:30N 28°16' W 014°60'2 3.0
2018-Jan-21 17:00N 28°17' W 015°01'1 2.8
2018-Jan-21 16:30N 28°17' W 015°03'2 3.9
2018-Jan-21 16:00N 28°16' W 015°05'2 4.4
2018-Jan-21 15:30N 28°14' W 015°07'2 4.6
2018-Jan-21 15:00N 28°13' W 015°09'2 4.7
2018-Jan-21 14:29N 28°12' W 015°11'2 4.7
2018-Jan-21 14:00N 28°11' W 015°14'2 4.7
2018-Jan-21 13:30N 28°09' W 015°16'2 4.6
2018-Jan-21 13:00N 28°08' W 015°18'2 4.6
2018-Jan-21 12:30N 28°07' W 015°20'2 4.3
2018-Jan-21 12:00N 28°07' W 015°23'2 4.3
2018-Jan-21 11:30N 28°08' W 015°25'1 1.0
2018-Jan-21 10:51N 28°08' W 015°25'0 0.0
2018-Jan-21 10:20N 28°08' W 015°25'0 0.0
2018-Jan-21 09:53N 28°08' W 015°25'0 0.0
2018-Jan-21 09:29N 28°08' W 015°25'0 0.0
2018-Jan-21 08:53N 28°08' W 015°25'0 0.0
2018-Jan-21 08:23N 28°08' W 015°25'0 0.0
2018-Jan-21 07:53N 28°08' W 015°25'0 0.0
2018-Jan-21 07:20N 28°08' W 015°25'0 0.0
2018-Jan-21 06:53N 28°08' W 015°25'0 0.0
2018-Jan-21 06:20N 28°08' W 015°25'0 0.0
2018-Jan-21 05:53N 28°08' W 015°25'0 0.0
2018-Jan-21 05:20N 28°08' W 015°25'0 0.0
2018-Jan-21 04:56N 28°08' W 015°25'0 0.0
2018-Jan-21 04:11N 28°08' W 015°25'0 0.0
2018-Jan-21 03:56N 28°08' W 015°25'0 0.0
2018-Jan-21 03:26N 28°08' W 015°25'0 0.0
2018-Jan-21 02:56N 28°08' W 015°25'0 0.0
2018-Jan-21 02:26N 28°08' W 015°25'0 0.0
2018-Jan-21 01:56N 28°08' W 015°25'0 0.0
2018-Jan-21 01:26N 28°08' W 015°25'0 0.0
2018-Jan-21 00:56N 28°08' W 015°25'0 0.0
2018-Jan-21 00:26N 28°08' W 015°25'0 0.0
2018-Jan-20 23:59N 28°08' W 015°25'0 0.0
2018-Jan-20 23:29N 28°08' W 015°25'0 0.0
2018-Jan-20 22:56N 28°08' W 015°25'0 0.0
2018-Jan-20 22:29N 28°08' W 015°25'0 0.0
2018-Jan-20 21:56N 28°08' W 015°25'0 0.0
2018-Jan-20 21:29N 28°08' W 015°25'0 0.0
2018-Jan-20 20:59N 28°08' W 015°25'0 0.0
2018-Jan-20 20:29N 28°08' W 015°25'0 0.0
2018-Jan-20 19:59N 28°08' W 015°25'0 0.0
2018-Jan-20 19:29N 28°08' W 015°25'0 0.0
2018-Jan-20 18:59N 28°08' W 015°25'0 0.0
2018-Jan-20 18:29N 28°08' W 015°25'0 0.0
2018-Jan-20 17:56N 28°08' W 015°25'0 0.0
2018-Jan-20 17:17N 28°08' W 015°25'0 0.0
2018-Jan-20 16:56N 28°08' W 015°25'0 0.0
2018-Jan-20 16:29N 28°08' W 015°25'0 0.0
2018-Jan-20 15:59N 28°08' W 015°25'0 0.0
2018-Jan-20 15:29N 28°08' W 015°25'0 0.0
2018-Jan-20 14:59N 28°08' W 015°25'0 0.0
2018-Jan-20 14:29N 28°08' W 015°25'0 0.0
2018-Jan-20 13:59N 28°08' W 015°25'0 0.0
2018-Jan-20 13:29N 28°08' W 015°25'0 0.0
2018-Jan-20 12:35N 28°08' W 015°25'0 0.0
2018-Jan-20 12:29N 28°08' W 015°25'0 0.0
2018-Jan-20 11:50N 28°08' W 015°25'0 0.0
2018-Jan-20 11:20N 28°08' W 015°25'0 0.0
2018-Jan-20 10:47N 28°08' W 015°25'0 0.0
2018-Jan-20 10:20N 28°08' W 015°25'0 0.0
2018-Jan-20 09:50N 28°08' W 015°25'0 0.0
2018-Jan-20 09:20N 28°08' W 015°25'0 0.0
2018-Jan-20 09:00N 28°08' W 015°25'1 2.4
2018-Jan-20 08:30N 28°07' W 015°25'3 5.5
2018-Jan-20 07:59N 28°05' W 015°23'1 3.0
2018-Jan-20 07:30N 28°04' W 015°22'1 1.0
2018-Jan-20 07:00N 28°04' W 015°22'2 4.0
2018-Jan-20 06:30N 28°06' W 015°21'2 4.0
2018-Jan-20 06:00N 28°07' W 015°20'2 3.8
2018-Jan-20 05:30N 28°09' W 015°19'2 4.1
2018-Jan-20 05:00N 28°10' W 015°17'2 4.0
2018-Jan-20 04:30N 28°12' W 015°16'0 1.0
2018-Jan-20 04:00N 28°12' W 015°16'3 5.3
2018-Jan-20 03:30N 28°14' W 015°19'3 5.2
2018-Jan-20 03:00N 28°15' W 015°21'2 4.4
2018-Jan-20 02:30N 28°17' W 015°23'2 4.4
2018-Jan-20 02:00N 28°18' W 015°25'2 4.4
2018-Jan-20 01:30N 28°20' W 015°27'2 4.0
2018-Jan-20 01:00N 28°20' W 015°29'2 3.7
2018-Jan-20 00:31N 28°21' W 015°31'2 3.8
2018-Jan-20 00:00N 28°22' W 015°33'2 3.8
2018-Jan-19 23:30N 28°23' W 015°35'2 3.5
2018-Jan-19 23:00N 28°24' W 015°37'1 2.8
2018-Jan-19 22:30N 28°25' W 015°38'1 3.0
2018-Jan-19 22:00N 28°26' W 015°39'2 3.3
2018-Jan-19 21:30N 28°27' W 015°41'2 3.5
2018-Jan-19 21:01N 28°28' W 015°42'2 3.8
2018-Jan-19 20:30N 28°29' W 015°44'2 4.5
2018-Jan-19 20:00N 28°30' W 015°47'3 5.4
2018-Jan-19 19:30N 28°31' W 015°49'3 5.4
2018-Jan-19 19:00N 28°32' W 015°52'3 5.6
2018-Jan-19 18:31N 28°34' W 015°55'3 5.6
2018-Jan-19 18:00N 28°35' W 015°57'3 5.6
2018-Jan-19 17:30N 28°37' W 016°00'  

Dump ship's entire track history